createdAt,value
2019-05-14T00:00:08.629Z,53.42
2019-05-14T00:02:41.334Z,55.63
2019-05-14T00:05:12.365Z,56.21
2019-05-14T00:07:43.634Z,56.21
2019-05-14T00:10:14.658Z,56.46
2019-05-14T00:12:45.751Z,55.96
2019-05-14T00:15:16.715Z,56.98
2019-05-14T00:17:47.685Z,57.62
2019-05-14T00:20:18.668Z,56.44
2019-05-14T00:22:52.010Z,56.31
2019-05-14T00:25:22.379Z,56.96
2019-05-14T00:27:53.349Z,57.03
2019-05-14T00:30:24.330Z,57.65
2019-05-14T00:32:55.470Z,56.59
2019-05-14T00:35:26.497Z,56.06
2019-05-14T00:37:58.013Z,56.61
2019-05-14T00:40:31.337Z,56.48
2019-05-14T00:43:02.772Z,56.93
2019-05-14T00:45:33.844Z,57.89
2019-05-14T00:48:05.484Z,58.64
2019-05-14T00:50:36.479Z,56.91
2019-05-14T00:53:07.382Z,56.44
2019-05-14T00:55:38.370Z,57.09
2019-05-14T00:58:11.240Z,57.40
2019-05-14T01:00:42.467Z,56.55
2019-05-14T01:03:13.576Z,56.64
2019-05-14T01:05:44.500Z,56.98
2019-05-14T01:08:15.418Z,57.78
2019-05-14T01:10:47.208Z,57.09
2019-05-14T01:13:18.137Z,58.16
2019-05-14T01:15:49.061Z,58.41
2019-05-14T01:18:21.958Z,58.73
2019-05-14T01:20:52.576Z,59.21
2019-05-14T01:23:23.550Z,57.49
2019-05-14T01:25:54.611Z,58.28
2019-05-14T01:28:32.692Z,59.19
2019-05-14T01:31:06.109Z,58.37
2019-05-14T01:33:37.065Z,58.10
2019-05-14T01:36:08.050Z,58.28
2019-05-14T01:38:39.170Z,58.85
2019-05-14T01:41:11.809Z,59.14
2019-05-14T01:43:42.918Z,58.19
2019-05-14T01:46:13.870Z,58.46
2019-05-14T01:48:44.926Z,60.50
2019-05-14T01:51:15.734Z,59.34
2019-05-14T01:53:46.881Z,60.00
2019-05-14T01:56:17.909Z,59.82
2019-05-14T01:58:48.918Z,60.33
2019-05-14T02:01:21.863Z,60.10
2019-05-14T02:03:52.596Z,58.96
2019-05-14T02:06:23.427Z,59.10
2019-05-14T02:08:54.503Z,58.61
2019-05-14T02:11:25.472Z,58.57
2019-05-14T02:13:56.486Z,57.97
2019-05-14T02:16:27.492Z,58.93
2019-05-14T02:18:58.504Z,59.56
2019-05-14T02:21:31.625Z,60.57
2019-05-14T02:24:02.666Z,61.27
2019-05-14T02:26:33.930Z,60.70
2019-05-14T02:29:12.282Z,61.00
2019-05-14T02:31:42.634Z,59.66
2019-05-14T02:34:13.555Z,61.34
2019-05-14T02:36:44.458Z,60.78
2019-05-14T02:39:19.652Z,59.80
2019-05-14T02:41:50.138Z,58.93
2019-05-14T02:44:21.027Z,60.51
2019-05-14T02:46:52.008Z,61.52
2019-05-14T02:49:23.003Z,63.40
2019-05-14T02:51:53.962Z,63.16
2019-05-14T02:54:24.978Z,63.95
2019-05-14T02:56:55.813Z,62.89
2019-05-14T02:59:30.193Z,62.67
2019-05-14T03:01:59.582Z,62.91
2019-05-14T03:04:30.458Z,63.19
2019-05-14T03:07:01.480Z,62.01
2019-05-14T03:09:32.345Z,62.09
2019-05-14T03:12:04.623Z,63.09
2019-05-14T03:14:39.270Z,62.78
2019-05-14T03:17:10.537Z,63.98
2019-05-14T03:19:41.918Z,62.87
2019-05-14T03:22:12.930Z,62.51
2019-05-14T03:24:43.821Z,61.87
2019-05-14T03:27:14.667Z,62.37
2019-05-14T03:29:49.562Z,62.67
2019-05-14T03:32:22.448Z,63.15
2019-05-14T03:34:53.183Z,62.77
2019-05-14T03:37:24.605Z,62.88
2019-05-14T03:39:56.002Z,64.80
2019-05-14T03:42:29.253Z,63.61
2019-05-14T03:44:59.970Z,63.07
2019-05-14T03:47:31.267Z,63.05
2019-05-14T03:50:02.295Z,61.81
2019-05-14T03:52:33.309Z,62.14
2019-05-14T03:55:04.994Z,62.90
2019-05-14T03:57:39.818Z,62.08
2019-05-14T04:00:10.819Z,65.20
2019-05-14T04:02:41.831Z,65.21
2019-05-14T04:05:12.717Z,65.91
2019-05-14T04:07:43.790Z,63.53
2019-05-14T04:10:14.789Z,63.87
2019-05-14T04:12:49.165Z,64.37
2019-05-14T04:15:19.317Z,64.02
2019-05-14T04:17:52.831Z,63.83
2019-05-14T04:20:25.222Z,63.36
2019-05-14T04:22:56.347Z,63.71
2019-05-14T04:30:29.049Z,63.74
2019-05-14T04:33:00.326Z,65.46
2019-05-14T04:38:04.087Z,66.73
2019-05-14T04:45:43.853Z,67.99
2019-05-14T04:50:49.464Z,66.94
2019-05-14T04:53:19.716Z,66.12
2019-05-14T04:58:22.311Z,66.56
2019-05-14T05:03:24.063Z,66.60
2019-05-14T05:08:29.999Z,67.62
2019-05-14T05:13:29.592Z,67.72
2019-05-14T05:21:00.084Z,66.79
2019-05-14T05:23:33.132Z,67.69
2019-05-14T05:26:21.151Z,67.62
2019-05-14T05:29:05.663Z,66.66
2019-05-14T05:33:58.187Z,68.03
2019-05-14T05:38:59.263Z,68.32
2019-05-14T05:43:59.739Z,68.22
2019-05-14T05:48:59.896Z,69.02
2019-05-14T05:51:32.361Z,68.40
2019-05-14T05:54:22.255Z,68.04
2019-05-14T06:00:18.932Z,67.07
2019-05-14T06:05:19.260Z,66.55
2019-05-14T06:07:50.187Z,67.19
2019-05-14T06:10:25.412Z,65.51
2019-05-14T06:12:58.534Z,65.01
2019-05-14T06:15:44.635Z,65.05
2019-05-14T06:18:15.138Z,64.99
2019-05-14T06:20:39.717Z,63.26
2019-05-14T06:23:10.759Z,63.58
2019-05-14T06:25:42.225Z,63.97
2019-05-14T06:28:13.753Z,63.39
2019-05-14T06:30:45.409Z,62.23
2019-05-14T06:33:19.409Z,61.46
2019-05-14T06:35:49.338Z,61.33
2019-05-14T06:38:20.385Z,60.08
2019-05-14T06:40:51.418Z,60.83
2019-05-14T06:43:22.561Z,60.51
2019-05-14T06:45:53.977Z,60.08
2019-05-14T06:48:30.258Z,59.25
2019-05-14T06:50:58.387Z,59.63
2019-05-14T06:53:29.712Z,59.39
2019-05-14T06:56:00.854Z,58.70
2019-05-14T06:58:32.094Z,58.25
2019-05-14T07:01:12.472Z,58.17
2019-05-14T07:03:40.221Z,57.79
2019-05-14T07:06:11.242Z,57.82
2019-05-14T07:08:42.344Z,56.25
2019-05-14T07:11:13.501Z,56.25
2019-05-14T07:13:44.820Z,56.79
2019-05-14T07:16:16.521Z,56.03
2019-05-14T07:18:52.801Z,56.55
2019-05-14T07:21:21.153Z,54.53
2019-05-14T07:23:52.139Z,55.02
2019-05-14T07:26:23.213Z,55.82
2019-05-14T07:28:54.069Z,54.63
2019-05-14T07:31:25.156Z,54.79
2019-05-14T07:33:58.253Z,54.71
2019-05-14T07:39:00.293Z,53.72
2019-05-14T07:41:31.152Z,55.44
2019-05-14T07:44:02.185Z,53.69
2019-05-14T07:46:33.284Z,53.98
2019-05-14T07:51:33.409Z,51.36
2019-05-14T07:54:04.790Z,50.41
2019-05-14T07:56:38.255Z,50.78
2019-05-14T07:59:08.923Z,52.98
2019-05-14T08:01:39.346Z,50.34
2019-05-14T08:04:12.233Z,50.38
2019-05-14T08:06:43.370Z,49.58
2019-05-14T08:09:14.453Z,48.67
2019-05-14T08:11:48.009Z,48.57
2019-05-14T08:14:18.795Z,50.40
2019-05-14T08:16:50.443Z,46.68
2019-05-14T08:19:26.239Z,46.45
2019-05-14T08:21:54.357Z,48.54
2019-05-14T08:26:57.813Z,44.91
2019-05-14T08:29:29.294Z,45.76
2019-05-14T08:32:03.373Z,44.82
2019-05-14T08:39:48.838Z,46.40
2019-05-14T08:42:20.270Z,45.74
2019-05-14T08:44:51.766Z,46.53
2019-05-14T08:47:22.902Z,48.00
2019-05-14T08:49:53.865Z,48.23
2019-05-14T08:52:24.939Z,46.76
2019-05-14T08:55:07.169Z,45.97
2019-05-14T08:57:29.323Z,46.06
2019-05-14T09:00:00.631Z,45.68
2019-05-14T09:02:32.038Z,44.17
2019-05-14T09:05:04.710Z,44.96
2019-05-14T09:07:38.204Z,43.85
2019-05-14T09:10:08.842Z,43.11
2019-05-14T09:12:40.197Z,42.99
2019-05-14T09:15:11.285Z,43.75
2019-05-14T09:17:42.411Z,43.93
2019-05-14T09:20:13.669Z,44.28
2019-05-14T09:22:44.780Z,42.99
2019-05-14T09:25:18.736Z,42.15
2019-05-14T09:27:50.820Z,42.42
2019-05-14T09:30:20.097Z,39.99
2019-05-14T09:32:51.436Z,41.52
2019-05-14T09:35:22.939Z,40.86
2019-05-14T09:37:53.903Z,41.39
2019-05-14T09:40:25.069Z,41.65
2019-05-14T09:42:58.730Z,40.56
2019-05-14T09:45:28.889Z,39.71
2019-05-14T09:47:59.958Z,40.91
2019-05-14T09:50:30.911Z,40.53
2019-05-14T09:53:01.928Z,38.96
2019-05-14T09:55:32.974Z,42.21
2019-05-14T09:58:04.001Z,39.72
2019-05-14T10:00:39.083Z,37.25
2019-05-14T10:03:10.683Z,36.36
2019-05-14T10:05:41.826Z,36.96
2019-05-14T10:08:12.810Z,38.37
2019-05-14T10:10:43.888Z,38.40
2019-05-14T10:13:14.813Z,35.84
2019-05-14T10:15:45.772Z,40.07
2019-05-14T10:18:18.865Z,37.67
2019-05-14T10:20:49.944Z,39.36
2019-05-14T10:23:21.459Z,38.18
2019-05-14T10:25:53.101Z,38.24
2019-05-14T10:28:28.826Z,40.04
2019-05-14T10:31:03.616Z,40.01
2019-05-14T10:33:34.022Z,39.26
2019-05-14T10:36:06.324Z,38.33
2019-05-14T10:38:38.790Z,38.91
2019-05-14T10:41:10.229Z,38.89
2019-05-14T10:43:41.230Z,38.75
2019-05-14T10:46:12.393Z,38.29
2019-05-14T10:48:43.405Z,38.07
2019-05-14T10:51:14.449Z,38.58
2019-05-14T10:53:48.506Z,37.98
2019-05-14T10:56:19.227Z,37.91
2019-05-14T10:58:50.895Z,38.45
2019-05-14T11:01:22.941Z,37.86
2019-05-14T11:03:54.832Z,39.58
2019-05-14T11:06:26.065Z,37.56
2019-05-14T11:08:57.771Z,35.79
2019-05-14T11:11:29.174Z,35.35
2019-05-14T11:14:03.573Z,35.74
2019-05-14T11:16:34.702Z,37.17
2019-05-14T11:19:09.082Z,37.12
2019-05-14T11:21:39.353Z,38.22
2019-05-14T11:24:10.514Z,34.50
2019-05-14T11:26:49.065Z,35.09
2019-05-14T11:29:20.101Z,33.90
2019-05-14T11:31:51.137Z,35.26
2019-05-14T11:34:22.145Z,36.24
2019-05-14T11:36:53.185Z,35.73
2019-05-14T11:39:28.835Z,36.27
2019-05-14T11:42:00.260Z,37.03
2019-05-14T11:44:31.272Z,36.02
2019-05-14T11:47:02.815Z,34.69
2019-05-14T11:49:33.957Z,34.34
2019-05-14T11:52:10.482Z,35.67
2019-05-14T11:54:40.912Z,34.46
2019-05-14T11:57:12.045Z,33.39
2019-05-14T11:59:43.061Z,32.20
2019-05-14T12:02:14.064Z,32.11
2019-05-14T12:04:45.145Z,33.95
2019-05-14T12:07:18.488Z,32.35
2019-05-14T12:09:48.962Z,32.70
2019-05-14T12:12:20.038Z,33.13
2019-05-14T12:14:50.966Z,33.69
2019-05-14T12:17:22.157Z,35.29
2019-05-14T12:19:53.328Z,34.38
2019-05-14T12:22:24.383Z,34.23
2019-05-14T12:24:55.398Z,33.50
2019-05-14T12:27:30.108Z,32.20
2019-05-14T12:30:09.786Z,32.36
2019-05-14T12:32:41.700Z,32.91
2019-05-14T12:35:12.747Z,34.32
2019-05-14T12:37:43.851Z,33.68
2019-05-14T12:40:15.141Z,33.42
2019-05-14T12:52:42.153Z,32.83
2019-05-14T13:00:20.719Z,33.14
2019-05-14T13:05:22.909Z,31.88
2019-05-14T13:10:23.320Z,33.95
2019-05-14T13:12:55.533Z,34.03
2019-05-14T13:15:28.701Z,33.40
2019-05-14T13:18:02.615Z,32.19
2019-05-14T13:20:35.483Z,31.16
2019-05-14T13:25:38.503Z,30.25
2019-05-14T13:28:09.973Z,33.12
2019-05-14T13:30:54.421Z,32.93
2019-05-14T13:33:25.356Z,32.77
2019-05-14T13:35:59.131Z,32.60
2019-05-14T13:38:29.445Z,31.55
2019-05-14T13:41:01.999Z,32.15
2019-05-14T13:43:33.879Z,32.11
2019-05-14T13:46:09.713Z,31.15
2019-05-14T13:48:43.544Z,30.57
2019-05-14T13:51:12.397Z,30.88
2019-05-14T13:53:43.463Z,32.05
2019-05-14T13:56:14.517Z,30.74
2019-05-14T13:58:45.473Z,31.76
2019-05-14T14:01:19.325Z,31.80
2019-05-14T14:04:04.979Z,30.49
2019-05-14T14:06:22.269Z,31.37
2019-05-14T14:08:53.442Z,32.30
2019-05-14T14:11:24.332Z,33.25
2019-05-14T14:13:55.322Z,30.90
2019-05-14T14:16:28.621Z,30.61
2019-05-14T14:19:03.347Z,33.04
2019-05-14T14:21:33.255Z,32.92
2019-05-14T14:24:04.928Z,32.70
2019-05-14T14:26:39.046Z,32.47
2019-05-14T14:29:09.360Z,30.98
2019-05-14T14:31:41.653Z,32.36
2019-05-14T14:34:13.264Z,31.96
2019-05-14T14:36:44.576Z,30.92
2019-05-14T14:39:15.657Z,30.33
2019-05-14T14:41:48.845Z,30.93
2019-05-14T14:44:19.374Z,31.91
2019-05-14T14:46:50.466Z,30.17
2019-05-14T14:49:21.463Z,31.69
2019-05-14T14:51:52.513Z,30.27
2019-05-14T14:54:23.573Z,30.12
2019-05-14T14:56:54.568Z,29.81
2019-05-14T14:59:25.641Z,30.14
2019-05-14T15:01:59.643Z,31.88
2019-05-14T15:04:29.503Z,31.37
2019-05-14T15:07:00.596Z,31.05
2019-05-14T15:09:31.686Z,29.94
2019-05-14T15:14:33.895Z,30.75
2019-05-14T15:17:24.082Z,30.38
2019-05-14T15:19:55.510Z,31.34
2019-05-14T15:22:30.427Z,31.16
2019-05-14T15:24:59.224Z,30.28
2019-05-14T15:27:39.601Z,32.52
2019-05-14T15:30:11.788Z,31.77
2019-05-14T15:32:44.388Z,31.50
2019-05-14T15:35:15.485Z,31.48
2019-05-14T15:37:48.622Z,31.40
2019-05-14T15:40:22.392Z,30.68
2019-05-14T15:47:49.541Z,31.03
2019-05-14T15:50:20.698Z,30.93
2019-05-14T15:55:23.937Z,31.13
2019-05-14T16:00:25.034Z,30.49
2019-05-14T16:05:24.961Z,32.06
2019-05-14T16:07:59.390Z,31.84
2019-05-14T16:15:29.238Z,31.24
2019-05-14T16:18:18.704Z,32.03
2019-05-14T16:23:59.297Z,31.39
2019-05-14T16:26:49.222Z,31.19
2019-05-14T16:29:36.837Z,31.93
2019-05-14T16:31:58.237Z,32.22
2019-05-14T16:34:29.790Z,31.51
2019-05-14T16:37:02.993Z,31.83
2019-05-14T16:40:04.842Z,33.34
2019-05-14T16:45:14.959Z,32.84
2019-05-14T16:47:46.012Z,33.06
2019-05-14T16:50:18.965Z,32.90
2019-05-14T16:52:50.027Z,32.46
2019-05-14T16:57:51.489Z,32.71
2019-05-14T17:00:22.707Z,32.86
2019-05-14T17:05:23.347Z,32.77
2019-05-14T17:08:28.394Z,33.21
2019-05-14T17:10:49.214Z,32.63
2019-05-14T17:13:20.275Z,32.71
2019-05-14T17:15:51.416Z,32.53
2019-05-14T17:18:22.499Z,33.36
2019-05-14T17:23:28.289Z,32.83
2019-05-14T17:25:59.224Z,32.56
2019-05-14T17:28:49.164Z,33.67
2019-05-14T17:31:20.532Z,33.47
2019-05-14T17:33:52.154Z,33.26
2019-05-14T17:36:28.261Z,33.30
2019-05-14T17:38:59.028Z,32.56
2019-05-14T17:41:49.071Z,32.71
2019-05-14T17:44:21.768Z,32.58
2019-05-14T17:46:55.255Z,33.53
2019-05-14T17:49:28.327Z,33.71
2019-05-14T17:51:57.961Z,33.42
2019-05-14T17:54:28.689Z,33.90
2019-05-14T17:59:30.054Z,34.80
2019-05-14T18:02:02.220Z,34.48
2019-05-14T18:04:33.381Z,34.17
2019-05-14T18:07:04.466Z,34.12
2019-05-14T18:09:35.483Z,34.61
2019-05-14T18:12:08.172Z,33.86
2019-05-14T18:14:39.440Z,34.70
2019-05-14T18:17:10.428Z,34.96
2019-05-14T18:19:43.290Z,34.88
2019-05-14T18:24:53.877Z,34.45
2019-05-14T18:27:24.909Z,34.60
2019-05-14T18:29:55.948Z,34.62
2019-05-14T18:32:26.984Z,35.56
2019-05-14T18:34:58.280Z,35.29
2019-05-14T18:37:29.260Z,35.41
2019-05-14T18:40:00.230Z,35.75
2019-05-14T18:42:30.990Z,36.41
2019-05-14T18:45:01.927Z,36.70
2019-05-14T18:47:32.894Z,38.41
2019-05-14T18:50:09.310Z,38.23
2019-05-14T18:52:40.414Z,38.50
2019-05-14T18:55:11.497Z,37.27
2019-05-14T18:57:48.540Z,37.67
2019-05-14T19:00:18.563Z,38.18
2019-05-14T19:02:51.267Z,38.75
2019-05-14T19:05:24.778Z,39.68
2019-05-14T19:07:55.634Z,39.25
2019-05-14T19:10:28.024Z,38.69
2019-05-14T19:12:59.508Z,39.42
2019-05-14T19:15:34.361Z,39.83
2019-05-14T19:18:08.932Z,39.61
2019-05-14T19:20:39.383Z,40.25
2019-05-14T19:23:10.604Z,39.36
2019-05-14T19:25:48.355Z,40.40
2019-05-14T19:28:19.681Z,40.63
2019-05-14T19:30:53.301Z,40.15
2019-05-14T19:33:24.499Z,40.40
2019-05-14T19:36:01.376Z,40.04
2019-05-14T19:38:38.996Z,40.79
2019-05-14T19:41:09.003Z,40.71
2019-05-14T19:43:39.060Z,41.61
2019-05-14T19:46:10.055Z,41.41
2019-05-14T19:48:48.369Z,41.39
2019-05-14T19:51:29.979Z,41.82
2019-05-14T19:54:01.300Z,42.21
2019-05-14T19:56:51.320Z,42.13
2019-05-14T19:59:22.248Z,42.51
2019-05-14T20:01:54.209Z,42.24
2019-05-14T20:04:25.212Z,43.01
2019-05-14T20:06:56.255Z,43.54
2019-05-14T20:09:28.127Z,42.98
2019-05-14T20:11:59.282Z,43.67
2019-05-14T20:14:30.351Z,43.59
2019-05-14T20:17:01.403Z,43.96
2019-05-14T20:19:53.555Z,44.06
2019-05-14T20:22:24.500Z,44.10
2019-05-14T20:25:10.043Z,43.64
2019-05-14T20:27:41.021Z,44.02
2019-05-14T20:30:12.080Z,44.30
2019-05-14T20:32:44.354Z,44.47
2019-05-14T20:35:28.292Z,44.80
2019-05-14T20:37:51.739Z,45.57
2019-05-14T20:40:24.322Z,45.03
2019-05-14T20:43:03.700Z,45.38
2019-05-14T20:45:38.964Z,45.91
2019-05-14T20:48:18.863Z,45.84
2019-05-14T20:50:52.768Z,45.76
2019-05-14T20:53:23.910Z,45.80
2019-05-14T20:55:54.899Z,45.57
2019-05-14T20:58:27.836Z,45.27
2019-05-14T21:00:58.504Z,45.70
2019-05-14T21:03:29.825Z,45.37
2019-05-14T21:06:00.796Z,46.23
2019-05-14T21:08:31.771Z,46.68
2019-05-14T21:11:02.895Z,45.96
2019-05-14T21:13:33.977Z,45.78
2019-05-14T21:16:08.447Z,46.07
2019-05-14T21:18:41.165Z,47.10
2019-05-14T21:21:11.668Z,46.36
2019-05-14T21:23:42.564Z,46.49
2019-05-14T21:26:13.680Z,46.36
2019-05-14T21:28:44.717Z,46.70
2019-05-14T21:31:18.030Z,46.63
2019-05-14T21:33:49.077Z,46.92
2019-05-14T21:36:20.778Z,46.80
2019-05-14T21:38:52.568Z,46.76
2019-05-14T21:41:25.489Z,47.37
2019-05-14T21:43:58.402Z,46.55
2019-05-14T21:46:31.710Z,46.37
2019-05-14T21:49:01.997Z,46.65
2019-05-14T21:51:32.993Z,47.12
2019-05-14T21:54:04.004Z,48.09
2019-05-14T21:56:34.953Z,47.85
2019-05-14T21:59:06.319Z,47.76
2019-05-14T22:01:39.380Z,48.40
2019-05-14T22:04:11.698Z,47.94
2019-05-14T22:06:42.585Z,47.90
2019-05-14T22:09:13.603Z,47.86
2019-05-14T22:11:44.566Z,47.74
2019-05-14T22:14:15.665Z,48.52
2019-05-14T22:16:48.624Z,49.44
2019-05-14T22:19:19.247Z,48.30
2019-05-14T22:21:50.236Z,48.85
2019-05-14T22:24:21.538Z,48.66
2019-05-14T22:26:53.914Z,49.38
2019-05-14T22:29:25.225Z,49.71
2019-05-14T22:31:58.590Z,48.78
2019-05-14T22:34:29.135Z,48.46
2019-05-14T22:36:59.999Z,48.00
2019-05-14T22:39:30.940Z,49.17
2019-05-14T22:42:02.427Z,49.23
2019-05-14T22:44:33.338Z,48.98
2019-05-14T22:47:04.215Z,50.01
2019-05-14T22:49:35.180Z,50.03
2019-05-14T22:52:08.314Z,50.36
2019-05-14T22:54:39.005Z,50.08
2019-05-14T22:57:10.118Z,50.12
2019-05-14T22:59:41.102Z,50.68
2019-05-14T23:02:12.089Z,49.72
2019-05-14T23:04:43.068Z,50.71
2019-05-14T23:07:14.055Z,50.80
2019-05-14T23:09:44.970Z,50.30
2019-05-14T23:12:15.857Z,50.01
2019-05-14T23:14:48.666Z,51.14
2019-05-14T23:17:19.867Z,50.86
2019-05-14T23:19:51.017Z,51.02
2019-05-14T23:22:22.025Z,51.59
2019-05-14T23:24:53.018Z,51.29
2019-05-14T23:27:24.222Z,51.76
2019-05-14T23:29:58.729Z,52.03
2019-05-14T23:32:29.993Z,52.34
2019-05-14T23:35:01.098Z,52.73
2019-05-14T23:37:32.190Z,52.01
2019-05-14T23:40:03.217Z,52.15
2019-05-14T23:42:34.408Z,53.42
2019-05-14T23:45:08.239Z,53.56
2019-05-14T23:47:39.374Z,53.76
2019-05-14T23:50:10.453Z,52.14
2019-05-14T23:52:41.412Z,52.40
2019-05-14T23:55:12.301Z,52.50
2019-05-14T23:57:43.368Z,52.13
